Time;durP1;ratioP1;P1;durP2;ratioP2;P2;SDS_P1;SDS_P2;PMS_P1;PMS_P2;Temp;Humidity;BMP_temperature;BMP_pressure;BME280_temperature;BME280_humidity;BME280_pressure;Samples;Min_cycle;Max_cycle;Signal;HPM_P1;HPM_P2
2022/01/12 00:01:12;;;;;;;21.27;10.68;;;;;;;-1.74;nan;101769.88;5036687;28;20037;-72
2022/01/12 00:03:38;;;;;;;25.38;11.60;;;;;;;-1.76;nan;101766.56;5049689;28;20040;-72
2022/01/12 00:06:05;;;;;;;24.80;11.38;;;;;;;-1.78;nan;101765.84;5054353;28;20110;-73
2022/01/12 00:08:31;;;;;;;23.95;11.48;;;;;;;-1.86;nan;101760.44;5054027;28;20071;-72
2022/01/12 00:11:01;;;;;;;21.20;10.10;;;;;;;-2.03;nan;101746.97;5054281;28;20044;-72
2022/01/12 00:13:27;;;;;;;25.08;10.63;;;;;;;-2.00;nan;101774.31;5054306;28;20040;-72
2022/01/12 00:15:53;;;;;;;25.63;10.77;;;;;;;-2.01;nan;101777.81;5042782;28;20491;-72
2022/01/12 00:18:19;;;;;;;21.27;9.70;;;;;;;-2.05;nan;101769.47;5054122;28;20540;-71
2022/01/12 00:20:44;;;;;;;19.95;9.25;;;;;;;-2.02;nan;101787.31;5039923;28;20036;-74
2022/01/12 00:23:10;;;;;;;23.02;10.57;;;;;;;-2.12;nan;101773.41;5048211;28;20467;-73
2022/01/12 00:26:14;;;;;;;20.58;9.65;;;;;;;-2.09;nan;101772.38;5052542;28;20063;-74
2022/01/12 00:34:05;;;;;;;21.35;8.80;;;;;;;-2.22;nan;101782.75;5054206;28;20570;-73
2022/01/12 00:36:32;;;;;;;20.35;9.55;;;;;;;-2.23;nan;101784.47;5035451;28;20467;-73
2022/01/12 00:38:59;;;;;;;20.83;9.60;;;;;;;-2.23;nan;101784.47;5053273;28;20025;-73
2022/01/12 00:41:24;;;;;;;22.80;10.73;;;;;;;-2.30;nan;101791.00;5035410;28;20379;-73
2022/01/12 00:43:57;;;;;;;22.65;9.73;;;;;;;;;;5052188;28;20071;-71
2022/01/12 00:46:23;;;;;;;21.50;9.43;;;;;;;-2.42;nan;101784.97;5035948;28;20386;-72
2022/01/12 00:48:49;;;;;;;20.25;9.57;;;;;;;-2.41;nan;101806.41;5053281;28;20090;-72
2022/01/12 00:51:14;;;;;;;20.88;8.77;;;;;;;-2.54;nan;101787.53;5053617;28;20033;-72
2022/01/12 00:53:40;;;;;;;22.63;8.98;;;;;;;-2.61;nan;101785.41;5053351;28;20021;-72
2022/01/12 00:56:06;;;;;;;20.73;8.68;;;;;;;-2.54;nan;101796.09;5053526;28;20483;-71
2022/01/12 00:58:33;;;;;;;19.58;9.18;;;;;;;-2.48;nan;101794.88;5053274;28;20035;-72
2022/01/12 01:00:58;;;;;;;19.13;8.80;;;;;;;-2.46;nan;101786.09;5051916;28;20033;-73
2022/01/12 01:03:24;;;;;;;17.63;8.38;;;;;;;-2.53;nan;101784.06;5053220;28;20116;-72
2022/01/12 01:05:50;;;;;;;20.25;9.27;;;;;;;-2.61;nan;101776.81;5053223;28;20471;-73
2022/01/12 01:08:16;;;;;;;17.63;8.52;;;;;;;-2.46;nan;101805.91;5034832;28;20036;-72
2022/01/12 01:10:46;;;;;;;20.02;8.85;;;;;;;-2.53;nan;101792.59;5034721;28;20052;-71
2022/01/12 01:13:16;;;;;;;;;;;;;;;-2.48;nan;101798.28;5053480;28;20029;-72
2022/01/12 01:26:24;;;;;;;21.83;9.63;;;;;;;-2.42;nan;101789.28;5052945;28;20033;-72
2022/01/12 01:28:49;;;;;;;23.73;10.30;;;;;;;-2.43;nan;101798.78;5052338;28;20037;-71
2022/01/12 01:31:14;;;;;;;21.58;10.52;;;;;;;-2.56;nan;101779.94;5034840;28;20403;-73
2022/01/12 01:33:41;;;;;;;21.38;9.02;;;;;;;-2.42;nan;101799.59;5052420;28;20032;-71
2022/01/12 01:36:06;;;;;;;21.55;9.23;;;;;;;-2.45;nan;101800.63;5052367;28;20410;-72
2022/01/12 01:38:33;;;;;;;20.65;9.20;;;;;;;-2.56;nan;101795.41;5034779;28;20104;-72
2022/01/12 01:40:58;;;;;;;22.20;9.82;;;;;;;-2.47;nan;101817.13;5014601;28;20045;-72
2022/01/12 01:54:03;;;;;;;20.77;9.20;;;;;;;-2.66;nan;101802.09;5052373;28;20029;-72
2022/01/12 01:56:29;;;;;;;20.63;9.30;;;;;;;-2.63;nan;101822.53;5047590;28;20029;-72
2022/01/12 01:58:55;;;;;;;18.95;8.88;;;;;;;-2.62;nan;101827.56;5048092;28;20036;-71
2022/01/12 02:01:20;;;;;;;20.45;8.68;;;;;;;-2.69;nan;101820.34;5052230;28;20036;-71
2022/01/12 02:03:45;;;;;;;18.98;8.50;;;;;;;-2.79;nan;101820.16;5034236;28;20036;-73
2022/01/12 02:06:11;;;;;;;18.95;8.88;;;;;;;-2.80;nan;101814.19;5052064;28;20033;-71
2022/01/12 02:08:37;;;;;;;19.20;8.38;;;;;;;-2.80;nan;101824.50;5051695;28;20487;-71
2022/01/12 02:11:03;;;;;;;18.85;8.88;;;;;;;-2.91;nan;101816.63;5052176;28;20035;-73
2022/01/12 02:13:29;;;;;;;20.52;8.80;;;;;;;-2.85;nan;101831.72;5052216;28;20120;-70
2022/01/12 02:15:56;;;;;;;23.20;8.90;;;;;;;-2.89;nan;101827.69;5051969;28;20090;-72
2022/01/12 02:36:06;;;;;;;18.90;8.68;;;;;;;-3.20;nan;101834.03;4990167;28;20041;-72
2022/01/12 02:40:29;;;;;;;18.52;8.82;;;;;;;-3.28;nan;101834.53;4989876;28;20432;-70
2022/01/12 02:51:15;;;;;;;22.48;8.90;;;;;;;-3.42;nan;101812.22;4993466;28;20034;-69
2022/01/12 02:53:42;;;;;;;19.33;8.43;;;;;;;-3.25;nan;101843.81;4993322;28;20074;-71
2022/01/12 02:56:14;;;;;;;21.65;9.68;;;;;;;-3.27;nan;101843.88;4966550;28;20026;-70
2022/01/12 02:58:41;;;;;;;19.58;8.20;;;;;;;-3.28;nan;101842.25;4982783;28;20158;-72
2022/01/12 03:03:35;;;;;;;19.58;8.50;;;;;;;-3.36;nan;101821.28;4993129;28;20121;-71
2022/01/12 03:06:04;;;;;;;20.88;8.65;;;;;;;-3.30;nan;101838.94;5026844;28;20498;-72
2022/01/12 03:08:36;;;;;;;19.65;9.55;;;;;;;-3.26;nan;101849.84;5054935;28;20048;-72
2022/01/12 03:11:02;;;;;;;20.52;9.35;;;;;;;-3.36;nan;101843.66;5036868;28;20060;-71
2022/01/12 03:13:27;;;;;;;20.17;9.05;;;;;;;-3.33;nan;101848.59;5054969;28;20490;-71
2022/01/12 03:15:53;;;;;;;23.50;8.90;;;;;;;-3.50;nan;101827.31;5054823;28;20039;-71
2022/01/12 03:18:18;;;;;;;20.67;8.77;;;;;;;-3.39;nan;101841.28;5053461;28;20123;-71
2022/01/12 03:20:45;;;;;;;21.08;9.23;;;;;;;-3.54;nan;101825.91;5054524;28;20033;-71
2022/01/12 03:23:13;;;;;;;19.65;9.38;;;;;;;-3.52;nan;101829.19;5053748;28;20417;-70
2022/01/12 03:25:38;;;;;;;21.10;9.52;;;;;;;-3.43;nan;101853.50;5054783;28;20029;-70
2022/01/12 03:28:06;;;;;;;19.52;9.07;;;;;;;-3.74;nan;101796.25;5054627;28;20438;-71
2022/01/12 03:30:40;;;;;;;21.00;9.50;;;;;;;-3.48;nan;101842.69;5036477;28;20390;-70
2022/01/12 03:33:16;;;;;;;20.70;9.77;;;;;;;-3.42;nan;101840.56;5054640;28;20028;-71
2022/01/12 03:36:12;;;;;;;22.02;9.27;;;;;;;-3.46;nan;101841.66;5036369;28;20040;-71
2022/01/12 03:38:36;;;;;;;24.30;10.63;;;;;;;-3.47;nan;101842.59;5033892;28;20110;-70
2022/01/12 03:41:02;;;;;;;22.40;8.55;;;;;;;-3.74;nan;101809.13;5043111;28;20049;-71
2022/01/12 03:43:27;;;;;;;25.27;10.18;;;;;;;-3.51;nan;101848.84;5054580;28;20470;-71
2022/01/12 03:45:52;;;;;;;19.83;9.00;;;;;;;-3.48;nan;101866.69;5054120;28;20041;-71
2022/01/12 03:48:18;;;;;;;23.20;9.45;;;;;;;-3.39;nan;101872.19;5054298;28;20108;-72
2022/01/12 03:50:43;;;;;;;24.52;9.77;;;;;;;-3.42;nan;101865.50;5035951;28;20126;-72
2022/01/12 03:53:09;;;;;;;19.63;9.15;;;;;;;-3.33;nan;101871.78;5047781;28;20020;-71
2022/01/12 03:55:34;;;;;;;19.55;9.05;;;;;;;-3.38;nan;101879.81;5054555;28;20033;-72
2022/01/12 03:58:00;;;;;;;22.65;9.90;;;;;;;-3.38;nan;101876.41;5036253;28;20116;-72
2022/01/12 04:00:25;;;;;;;24.98;10.60;;;;;;;-3.49;nan;101861.66;5054544;28;20111;-71
2022/01/12 04:02:51;;;;;;;26.10;9.98;;;;;;;-3.49;nan;101869.38;5036169;28;20132;-72
2022/01/12 04:05:39;;;;;;;27.75;10.57;;;;;;;-3.54;nan;101855.97;5054316;28;20132;-71
2022/01/12 04:08:19;;;;;;;29.27;11.48;;;;;;;-3.45;nan;101874.25;5033963;28;20373;-71
2022/01/12 04:10:53;;;;;;;24.92;11.50;;;;;;;-3.52;nan;101848.94;5042451;28;20025;-71
2022/01/12 04:13:22;;;;;;;32.20;12.40;;;;;;;-3.51;nan;101861.75;5054446;28;20037;-73
2022/01/12 04:15:51;;;;;;;26.73;11.35;;;;;;;-3.54;nan;101869.66;5037988;28;20033;-74
2022/01/12 04:18:16;;;;;;;23.70;9.57;;;;;;;-3.56;nan;101866.34;5052662;28;20091;-74
2022/01/12 04:20:50;;;;;;;19.30;9.35;;;;;;;-3.48;nan;101883.88;5054170;28;20418;-73
2022/01/12 04:23:20;;;;;;;25.83;10.57;;;;;;;-3.56;nan;101891.28;5036469;28;20032;-73
2022/01/12 04:25:48;;;;;;;21.20;9.15;;;;;;;-3.54;nan;101887.69;5035707;28;20479;-73
2022/01/12 04:28:15;;;;;;;21.73;9.65;;;;;;;-3.53;nan;101897.03;5054182;28;20076;-70
2022/01/12 04:30:41;;;;;;;23.23;10.15;;;;;;;-3.56;nan;101894.69;5053614;28;20032;-71
2022/01/12 04:33:07;;;;;;;28.60;11.35;;;;;;;-3.65;nan;101877.22;5035173;28;20037;-70
2022/01/12 04:35:36;;;;;;;30.88;11.55;;;;;;;-3.56;nan;101904.16;5035337;28;20033;-71
2022/01/12 04:38:05;;;;;;;30.20;11.97;;;;;;;-3.66;nan;101893.59;5035034;28;20172;-71
2022/01/12 04:40:31;;;;;;;24.25;9.13;;;;;;;-3.73;nan;101882.03;5053011;28;20067;-72
2022/01/12 04:42:56;;;;;;;32.35;11.77;;;;;;;-3.72;nan;101899.94;5035143;28;20486;-71
2022/01/12 04:50:25;;;;;;;24.35;10.23;;;;;;;-3.58;nan;101909.38;5052949;28;20057;-71
2022/01/12 04:52:51;;;;;;;25.38;10.65;;;;;;;-3.64;nan;101907.19;5034762;28;20036;-71
2022/01/12 04:55:17;;;;;;;27.88;11.48;;;;;;;-3.66;nan;101909.06;5034932;28;20033;-71
2022/01/12 04:57:43;;;;;;;31.52;12.95;;;;;;;-3.69;nan;101920.38;5034734;28;20078;-71
2022/01/12 05:00:15;;;;;;;30.35;12.32;;;;;;;-3.90;nan;101895.94;5035171;28;20040;-72
2022/01/12 05:13:23;;;;;;;30.10;11.57;;;;;;;;;;5052291;28;20037;-71
2022/01/12 05:15:48;;;;;;;27.35;10.73;;;;;;;;;;5052547;28;20043;-71
2022/01/12 05:18:14;;;;;;;34.35;12.73;;;;;;;;;;5052847;28;20029;-71
2022/01/12 05:20:39;;;;;;;26.30;11.20;;;;;;;;;;5052252;28;20127;-71
2022/01/12 05:23:04;;;;;;;31.13;12.40;;;;;;;;;;5022879;28;20742;-71
2022/01/12 05:25:29;;;;;;;26.70;11.20;;;;;;;;;;5051917;28;20353;-71
2022/01/12 05:27:55;;;;;;;26.63;11.30;;;;;;;;;;5038841;28;20275;-71
2022/01/12 05:30:20;;;;;;;28.67;11.90;;;;;;;;;;5032462;28;20640;-72
2022/01/12 05:32:46;;;;;;;34.80;13.52;;;;;;;;;;5028465;28;20037;-71
2022/01/12 05:35:13;;;;;;;35.25;12.55;;;;;;;;;;5034138;28;20475;-71
2022/01/12 05:37:40;;;;;;;31.00;12.15;;;;;;;;;;5051656;28;20123;-71
2022/01/12 05:40:05;;;;;;;39.28;14.07;;;;;;;;;;5033974;28;20068;-70
2022/01/12 05:42:31;;;;;;;31.25;13.13;;;;;;;;;;5052307;28;20471;-71
2022/01/12 05:44:56;;;;;;;36.08;12.82;;;;;;;;;;5052035;28;20076;-71
2022/01/12 05:47:39;;;;;;;34.63;12.93;;;;;;;;;;5034209;28;20060;-71
2022/01/12 05:50:05;;;;;;;26.58;10.77;;;;;;;;;;5051872;28;20029;-71
2022/01/12 05:52:30;;;;;;;28.52;11.52;;;;;;;;;;5051798;28;20040;-71
2022/01/12 05:54:55;;;;;;;23.77;10.63;;;;;;;;;;5051790;28;20119;-71
2022/01/12 05:57:21;;;;;;;25.38;11.40;;;;;;;;;;5051998;28;20277;-71
2022/01/12 05:59:46;;;;;;;28.83;11.87;;;;;;;;;;5052211;28;20211;-71
2022/01/12 06:02:11;;;;;;;28.50;11.17;;;;;;;;;;5051949;28;20254;-71
2022/01/12 06:04:36;;;;;;;29.63;11.90;;;;;;;;;;5051672;28;20261;-71
2022/01/12 06:07:02;;;;;;;36.67;13.13;;;;;;;;;;5051427;28;20738;-72
2022/01/12 06:09:27;;;;;;;32.92;12.60;;;;;;;;;;5031561;28;20052;-71
2022/01/12 06:11:52;;;;;;;35.45;14.07;;;;;;;;;;5049611;28;20060;-73
2022/01/12 06:14:20;;;;;;;34.67;13.93;;;;;;;;;;5051889;28;20029;-71
2022/01/12 06:16:45;;;;;;;33.28;12.85;;;;;;;;;;5051423;28;20258;-72
2022/01/12 06:19:10;;;;;;;28.23;11.40;;;;;;;;;;5051670;28;20036;-72
2022/01/12 06:21:36;;;;;;;40.70;14.93;;;;;;;;;;5051514;28;20047;-72
2022/01/12 06:24:01;;;;;;;51.15;16.85;;;;;;;;;;5034766;28;20269;-72
2022/01/12 06:26:27;;;;;;;36.80;15.00;;;;;;;;;;5056062;28;20032;-72
2022/01/12 06:29:14;;;;;;;32.40;12.50;;;;;;;;;;5055494;28;20041;-72
2022/01/12 06:31:39;;;;;;;29.75;11.93;;;;;;;;;;5055046;28;20044;-72
2022/01/12 06:34:04;;;;;;;27.95;11.20;;;;;;;;;;5055830;28;20055;-72
2022/01/12 06:36:29;;;;;;;29.88;12.32;;;;;;;;;;5037319;28;20498;-72
2022/01/12 06:38:55;;;;;;;31.70;12.27;;;;;;;;;;5037371;28;20499;-71
2022/01/12 06:41:20;;;;;;;32.53;13.05;;;;;;;;;;5055108;28;20045;-71
2022/01/12 06:43:46;;;;;;;35.53;13.00;;;;;;;;;;5055595;28;20045;-71
2022/01/12 06:46:11;;;;;;;33.72;13.02;;;;;;;;;;5045173;28;20040;-71
2022/01/12 06:48:38;;;;;;;28.80;11.77;;;;;;;-4.79;nan;102024.53;5035114;28;20025;-71
2022/01/12 06:51:03;;;;;;;28.90;12.88;;;;;;;-4.88;nan;102045.59;5051630;28;20033;-70
2022/01/12 06:53:29;;;;;;;29.75;12.20;;;;;;;-5.04;nan;102022.50;5055272;28;20382;-70
2022/01/12 06:55:55;;;;;;;32.65;11.82;;;;;;;-5.05;nan;102039.66;5055106;28;20029;-73
2022/01/12 06:58:21;;;;;;;28.63;12.25;;;;;;;-5.00;nan;102037.66;5035704;28;20568;-74
2022/01/12 07:00:47;;;;;;;27.85;11.52;;;;;;;-5.32;nan;101990.56;5034699;28;20040;-73
2022/01/12 07:03:12;;;;;;;29.15;12.15;;;;;;;-5.09;nan;102040.72;5033471;28;20104;-73
2022/01/12 07:05:38;;;;;;;35.30;11.88;;;;;;;-5.19;nan;102034.41;5040213;28;20112;-73
2022/01/12 07:08:04;;;;;;;26.98;11.45;;;;;;;-5.18;nan;102030.94;5038059;28;20033;-73
2022/01/12 07:10:29;;;;;;;27.42;11.27;;;;;;;-5.11;nan;102039.97;5034291;28;20464;-73
2022/01/12 07:12:55;;;;;;;28.50;11.10;;;;;;;-5.15;nan;102041.88;5038701;28;20091;-73
2022/01/12 07:15:20;;;;;;;32.90;13.07;;;;;;;-5.11;nan;102050.25;5035999;28;20040;-73
2022/01/12 07:17:46;;;;;;;35.10;13.05;;;;;;;-5.16;nan;102045.34;5054904;28;20064;-72
2022/01/12 07:20:11;;;;;;;35.40;12.68;;;;;;;-5.15;nan;102048.72;5054719;28;20463;-73
2022/01/12 07:22:37;;;;;;;26.90;11.35;;;;;;;-5.22;nan;102052.53;5054754;28;20029;-72
2022/01/12 07:25:02;;;;;;;32.38;12.77;;;;;;;-5.20;nan;102055.84;5036072;28;20040;-74
2022/01/12 07:27:28;;;;;;;41.15;14.18;;;;;;;-5.20;nan;102050.72;5053338;28;20145;-75
2022/01/12 07:29:53;;;;;;;38.25;14.05;;;;;;;-5.15;nan;102062.44;5054531;28;20064;-76
2022/01/12 07:32:19;;;;;;;35.13;13.63;;;;;;;-5.11;nan;102055.38;5051746;28;20033;-75
2022/01/12 07:34:44;;;;;;;32.80;12.98;;;;;;;-5.06;nan;102057.69;5033646;28;20038;-73
2022/01/12 07:37:10;;;;;;;28.42;12.43;;;;;;;-5.23;nan;102046.59;5032315;28;20059;-74
2022/01/12 07:39:35;;;;;;;39.83;15.13;;;;;;;-5.26;nan;102051.06;5033486;28;20029;-74
2022/01/12 07:42:01;;;;;;;39.95;16.15;;;;;;;-5.15;nan;102064.13;5042842;28;20108;-74
2022/01/12 07:44:26;;;;;;;38.42;13.73;;;;;;;-5.14;nan;102061.50;5035986;28;20120;-73
2022/01/12 07:46:52;;;;;;;33.85;12.90;;;;;;;-5.06;nan;102073.94;5018154;28;20067;-74
2022/01/12 07:49:17;;;;;;;36.35;12.25;;;;;;;-5.13;nan;102058.00;5040913;28;20386;-74
2022/01/12 07:51:43;;;;;;;29.58;11.88;;;;;;;-5.17;nan;102063.38;5054198;28;20033;-74
2022/01/12 07:54:08;;;;;;;33.45;14.13;;;;;;;-5.24;nan;102055.22;5054102;28;20087;-75
2022/01/12 07:56:33;;;;;;;35.72;14.85;;;;;;;-5.26;nan;102069.88;5049292;28;20092;-73
2022/01/12 07:58:59;;;;;;;47.50;21.02;;;;;;;-5.23;nan;102071.44;5044447;28;20029;-73
2022/01/12 08:01:24;;;;;;;41.83;16.83;;;;;;;-5.27;nan;102080.19;5035326;28;20423;-74
2022/01/12 08:03:50;;;;;;;31.25;13.75;;;;;;;-5.44;nan;102079.34;5053952;28;20039;-74
2022/01/12 08:06:16;;;;;;;38.20;15.38;;;;;;;-5.51;nan;102084.88;5053841;28;20037;-74
2022/01/12 08:08:42;;;;;;;31.38;14.68;;;;;;;-5.69;nan;102069.50;5053682;28;20116;-74
2022/01/12 08:11:07;;;;;;;34.88;13.50;;;;;;;-5.61;nan;102092.22;5053391;28;20079;-74
2022/01/12 08:13:33;;;;;;;44.30;18.35;;;;;;;-5.53;nan;102090.09;5053812;28;20033;-74
2022/01/12 08:15:58;;;;;;;33.35;14.85;;;;;;;-5.54;nan;102106.41;5053624;28;20029;-74
2022/01/12 08:18:23;;;;;;;43.92;14.82;;;;;;;-5.66;nan;102092.44;5031230;28;20029;-74
2022/01/12 08:20:49;;;;;;;41.17;14.93;;;;;;;-5.45;nan;102102.53;5033586;28;20041;-74
2022/01/12 08:23:15;;;;;;;37.60;14.02;;;;;;;-5.40;nan;102096.25;5039674;28;20029;-74
2022/01/12 08:25:40;;;;;;;39.22;13.52;;;;;;;-5.33;nan;102099.34;5038454;28;20033;-73
2022/01/12 08:28:07;;;;;;;34.95;11.68;;;;;;;-5.21;nan;102108.13;5025780;28;20043;-74
2022/01/12 08:30:34;;;;;;;35.75;13.70;;;;;;;-5.28;nan;102101.66;5015490;28;20124;-75
2022/01/12 08:33:02;;;;;;;32.83;12.85;;;;;;;-5.31;nan;102115.50;5049275;28;20368;-74
2022/01/12 08:35:27;;;;;;;33.65;13.75;;;;;;;-5.35;nan;102114.81;5035330;28;20037;-74
2022/01/12 08:37:53;;;;;;;36.28;14.43;;;;;;;-5.31;nan;102115.50;5052972;28;20147;-74
2022/01/12 08:40:19;;;;;;;36.47;13.95;;;;;;;-5.28;nan;102119.63;5052687;28;20055;-73
2022/01/12 08:42:46;;;;;;;42.05;14.65;;;;;;;-5.25;nan;102107.47;5035248;28;20399;-73
2022/01/12 08:45:12;;;;;;;40.85;15.30;;;;;;;-5.16;nan;102122.38;5053250;28;20029;-74
2022/01/12 08:47:38;;;;;;;39.97;13.55;;;;;;;-5.25;nan;102137.44;5052375;28;20029;-74
2022/01/12 08:50:05;;;;;;;35.80;13.73;;;;;;;-5.30;nan;102116.31;5052929;28;20025;-73
2022/01/12 08:52:31;;;;;;;32.63;13.30;;;;;;;-5.27;nan;102126.41;5034686;28;20171;-74
2022/01/12 08:54:59;;;;;;;34.78;13.88;;;;;;;-5.27;nan;102124.69;5034166;28;20116;-74
2022/01/12 08:57:24;;;;;;;30.17;13.77;;;;;;;-5.28;nan;102120.47;5044926;28;20040;-74
2022/01/12 08:59:50;;;;;;;38.95;14.88;;;;;;;-5.25;nan;102124.59;5015215;28;20029;-74
2022/01/12 09:02:16;;;;;;;33.30;12.85;;;;;;;-5.30;nan;102118.88;5044578;28;20044;-74
2022/01/12 09:04:43;;;;;;;34.80;14.25;;;;;;;-5.25;nan;102137.44;5034712;28;20033;-74
2022/01/12 09:07:08;;;;;;;35.90;13.90;;;;;;;-5.35;nan;102135.34;5052569;28;20033;-73
2022/01/12 09:09:35;;;;;;;37.05;14.88;;;;;;;-5.26;nan;102144.31;5034773;28;20037;-74
2022/01/12 09:12:01;;;;;;;33.15;13.30;;;;;;;-5.41;nan;102138.25;5052543;28;20025;-74
2022/01/12 09:14:27;;;;;;;33.35;13.45;;;;;;;-5.29;nan;102156.47;5052782;28;20032;-74
2022/01/12 09:16:54;;;;;;;32.83;13.20;;;;;;;-5.30;nan;102159.97;5052333;28;20470;-74
2022/01/12 09:19:21;;;;;;;33.72;13.00;;;;;;;-5.32;nan;102148.94;5052628;28;20039;-74
2022/01/12 09:21:47;;;;;;;35.53;13.82;;;;;;;-5.24;nan;102150.22;5052723;28;20128;-74
2022/01/12 09:24:12;;;;;;;36.63;14.05;;;;;;;-5.19;nan;102142.28;5052471;28;20443;-73
2022/01/12 09:26:37;;;;;;;40.30;14.60;;;;;;;-5.11;nan;102157.28;5034455;28;20410;-73
2022/01/12 09:29:03;;;;;;;55.22;21.20;;;;;;;-5.16;nan;102162.66;5052343;28;20114;-73
2022/01/12 09:31:28;;;;;;;43.13;19.73;;;;;;;-5.28;nan;102148.72;5052015;28;20471;-73
2022/01/12 09:33:54;;;;;;;50.13;16.88;;;;;;;-5.27;nan;102158.06;5052586;28;20040;-74
2022/01/12 09:36:19;;;;;;;35.42;13.35;;;;;;;-5.24;nan;102146.81;5052285;28;20032;-74
2022/01/12 09:38:45;;;;;;;35.22;13.68;;;;;;;-5.10;nan;102158.94;5052217;28;20051;-74
2022/01/12 09:41:10;;;;;;;33.67;14.25;;;;;;;-5.10;nan;102151.22;5051836;28;20513;-72
2022/01/12 09:43:38;;;;;;;27.05;11.90;;;;;;;-5.07;nan;102166.50;5052146;28;20025;-73
2022/01/12 09:46:03;;;;;;;36.60;15.48;;;;;;;-5.23;nan;102146.72;5052276;28;20033;-75
2022/01/12 09:48:33;;;;;;;29.75;12.40;;;;;;;-5.11;nan;102163.25;5051993;28;20040;-73
2022/01/12 09:51:03;;;;;;;29.10;12.07;;;;;;;-5.09;nan;102156.28;5052183;28;20090;-74
2022/01/12 09:53:29;;;;;;;32.03;14.00;;;;;;;-5.21;nan;102149.22;5052136;28;20032;-73
2022/01/12 09:55:54;;;;;;;30.42;13.23;;;;;;;-5.29;nan;102129.09;5052030;28;20115;-74
2022/01/12 09:58:21;;;;;;;28.17;12.07;;;;;;;-5.07;nan;102166.50;5051940;28;20032;-74
2022/01/12 10:00:57;;;;;;;33.92;13.63;;;;;;;-5.16;nan;102150.63;5033744;28;20037;-74
2022/01/12 10:03:25;;;;;;;32.90;13.40;;;;;;;-5.25;nan;102161.38;5052097;28;20115;-74
2022/01/12 10:05:51;;;;;;;29.80;13.45;;;;;;;-5.23;nan;102153.59;5052162;28;20166;-74
2022/01/12 10:08:16;;;;;;;35.03;12.77;;;;;;;-5.10;nan;102158.94;5051841;28;20033;-74
2022/01/12 10:10:48;;;;;;;38.58;14.68;;;;;;;-5.03;nan;102167.97;5051519;28;20025;-74
2022/01/12 10:13:23;;;;;;;38.65;14.32;;;;;;;-4.94;nan;102168.31;5051953;28;20523;-74
2022/01/12 10:15:53;;;;;;;34.35;13.55;;;;;;;-4.88;nan;102164.63;5051762;28;20040;-74
2022/01/12 10:18:20;;;;;;;35.00;13.75;;;;;;;-4.88;nan;102163.78;5051978;28;20038;-73
2022/01/12 10:20:47;;;;;;;35.85;14.23;;;;;;;-4.81;nan;102162.53;5051933;28;20029;-74
2022/01/12 10:23:15;;;;;;;39.20;15.20;;;;;;;-4.77;nan;102161.47;5033709;28;20036;-74
2022/01/12 10:25:46;;;;;;;37.50;14.07;;;;;;;-4.81;nan;102152.25;5033622;28;20033;-74
2022/01/12 10:28:20;;;;;;;41.08;15.90;;;;;;;-4.72;nan;102154.34;5033757;28;20136;-74
2022/01/12 10:31:03;;;;;;;40.67;16.20;;;;;;;-4.64;nan;102165.06;5051482;28;20040;-73
2022/01/12 10:33:31;;;;;;;39.05;16.05;;;;;;;-4.53;nan;102167.03;5051605;28;20032;-74
2022/01/12 10:36:00;;;;;;;48.30;18.40;;;;;;;-4.60;nan;102153.69;5051764;28;20033;-74
2022/01/12 10:38:27;;;;;;;45.90;18.17;;;;;;;-4.43;nan;102163.06;5051591;28;20033;-74
2022/01/12 10:41:02;;;;;;;39.50;15.15;;;;;;;-4.36;nan;102166.13;5051154;28;20045;-74
2022/01/12 10:43:44;;;;;;;39.05;16.38;;;;;;;-4.44;nan;102169.13;5051665;28;20119;-75
2022/01/12 10:46:13;;;;;;;43.80;17.30;;;;;;;-4.33;nan;102173.69;5051461;28;20025;-74
2022/01/12 10:48:43;;;;;;;40.08;15.95;;;;;;;-4.35;nan;102178.91;5051368;28;20076;-74
2022/01/12 10:51:10;;;;;;;40.92;16.55;;;;;;;-4.50;nan;102165.16;5051488;28;20032;-74
2022/01/12 10:53:36;;;;;;;45.35;17.60;;;;;;;-4.51;nan;102176.31;5051821;28;20083;-70
2022/01/12 10:56:15;;;;;;;43.60;15.82;;;;;;;-4.59;nan;102178.50;5049015;28;20143;-71
2022/01/12 10:58:43;;;;;;;50.70;17.63;;;;;;;-4.79;nan;102153.88;5031572;28;20116;-71
2022/01/12 11:01:11;;;;;;;39.60;16.50;;;;;;;-4.64;nan;102175.34;5040670;28;20663;-71
2022/01/12 11:03:38;;;;;;;40.08;16.92;;;;;;;-4.83;nan;102161.81;5033453;28;20041;-72
2022/01/12 11:06:04;;;;;;;39.20;17.80;;;;;;;-4.92;nan;102156.22;5051428;28;20115;-71
2022/01/12 11:08:30;;;;;;;39.15;16.88;;;;;;;-5.01;nan;102163.59;5033097;28;20506;-71
2022/01/12 11:10:57;;;;;;;42.35;17.45;;;;;;;-4.99;nan;102159.22;5053495;28;20037;-70
2022/01/12 11:13:25;;;;;;;41.78;17.08;;;;;;;-4.86;nan;102170.50;5054848;28;20029;-71
2022/01/12 11:15:51;;;;;;;40.10;16.02;;;;;;;-4.93;nan;102146.88;5054773;28;20067;-70
2022/01/12 11:18:21;;;;;;;37.50;15.80;;;;;;;-4.88;nan;102153.50;5054788;28;20029;-71
2022/01/12 11:20:49;;;;;;;38.47;16.58;;;;;;;-4.85;nan;102163.63;5055282;28;20475;-71
2022/01/12 11:23:17;;;;;;;43.63;17.75;;;;;;;-4.49;nan;102178.81;5054708;28;20462;-70
2022/01/12 11:25:45;;;;;;;49.60;21.08;;;;;;;-4.39;nan;102171.44;5054661;28;20039;-71
2022/01/12 11:28:27;;;;;;;45.70;17.87;;;;;;;-4.22;nan;102181.63;5054840;28;20147;-70
2022/01/12 11:30:54;;;;;;;52.05;19.02;;;;;;;-4.12;nan;102182.78;5054365;28;20336;-70
2022/01/12 11:33:22;;;;;;;41.50;17.58;;;;;;;-3.91;nan;102182.47;5054427;28;20506;-69
2022/01/12 11:35:50;;;;;;;42.47;17.33;;;;;;;-3.96;nan;102174.19;5054419;28;20032;-71
2022/01/12 11:38:29;;;;;;;41.30;16.88;;;;;;;-4.06;nan;102185.00;5054361;28;20059;-70
2022/01/12 11:41:08;;;;;;;34.78;15.55;;;;;;;-4.16;nan;102176.16;5053965;28;20049;-70
2022/01/12 11:43:45;;;;;;;47.15;18.70;;;;;;;-4.15;nan;102193.22;5038398;28;20537;-71
2022/01/12 11:46:14;;;;;;;41.60;17.98;;;;;;;-4.19;nan;102193.47;5045962;28;20033;-70
2022/01/12 11:48:46;;;;;;;46.30;17.67;;;;;;;-4.35;nan;102194.34;5037096;28;20087;-70
2022/01/12 11:51:13;;;;;;;46.67;18.40;;;;;;;-4.44;nan;102197.41;5015884;28;20041;-71
2022/01/12 11:53:56;;;;;;;41.55;17.83;;;;;;;-4.47;nan;102192.44;5041094;28;20025;-70
2022/01/12 11:56:26;;;;;;;45.10;17.48;;;;;;;-4.51;nan;102178.91;5054250;28;20051;-70
2022/01/12 11:59:05;;;;;;;42.67;17.80;;;;;;;-4.40;nan;102187.78;5053817;28;20083;-70
2022/01/12 12:01:37;;;;;;;;;;;;;;;-4.44;nan;102194.81;5054577;28;20029;-67
2022/01/12 12:04:04;;;;;;;48.70;19.02;;;;;;;-4.44;nan;102202.53;5035927;28;19932;-70
2022/01/12 12:06:30;;;;;;;51.67;20.92;;;;;;;-4.42;nan;102197.31;5035103;28;20486;-70
2022/01/12 12:08:58;;;;;;;54.10;18.13;;;;;;;-4.47;nan;102200.13;5053264;28;20114;-69
2022/01/12 12:11:28;;;;;;;53.03;19.63;;;;;;;-4.50;nan;102198.56;5035876;28;20041;-70
2022/01/12 12:13:59;;;;;;;54.08;19.45;;;;;;;-4.52;nan;102202.13;5048087;28;20067;-70
2022/01/12 12:16:25;;;;;;;48.67;19.77;;;;;;;-4.58;nan;102208.41;5037655;28;20039;-70
2022/01/12 12:18:51;;;;;;;52.13;21.27;;;;;;;-4.57;nan;102210.09;5047354;28;20399;-70
2022/01/12 12:21:16;;;;;;;54.88;20.85;;;;;;;-4.61;nan;102190.59;5031388;28;20033;-70
2022/01/12 12:23:41;;;;;;;48.28;19.45;;;;;;;-4.64;nan;102208.75;5042724;28;20040;-70
2022/01/12 12:26:08;;;;;;;48.28;20.08;;;;;;;-4.73;nan;102204.91;5053731;28;20079;-70
2022/01/12 12:28:34;;;;;;;55.13;20.25;;;;;;;-4.70;nan;102199.59;5035062;28;20040;-70
2022/01/12 12:30:59;;;;;;;47.90;19.88;;;;;;;-4.75;nan;102205.91;5053502;28;20037;-70
2022/01/12 12:33:24;;;;;;;60.45;20.70;;;;;;;-4.65;nan;102211.41;5053189;28;20035;-70
2022/01/12 12:35:50;;;;;;;62.53;22.42;;;;;;;-4.61;nan;102216.28;5035429;28;20064;-69
2022/01/12 12:38:17;;;;;;;51.00;21.20;;;;;;;-4.70;nan;102206.50;5037263;28;20387;-70
2022/01/12 12:40:48;;;;;;;47.70;19.30;;;;;;;-4.66;nan;102223.44;5037031;28;20145;-70
2022/01/12 12:43:27;;;;;;;50.70;20.63;;;;;;;-4.72;nan;102211.75;5031508;28;20041;-71
2022/01/12 12:45:59;;;;;;;49.78;19.52;;;;;;;-4.61;nan;102228.31;5033988;28;20491;-71
2022/01/12 12:48:30;;;;;;;58.53;21.83;;;;;;;-4.58;nan;102226.41;5036018;28;20040;-70
2022/01/12 12:51:05;;;;;;;54.53;21.73;;;;;;;-4.62;nan;102222.38;5053131;28;20041;-70
2022/01/12 12:53:32;;;;;;;55.10;20.85;;;;;;;-4.64;nan;102224.19;5052869;28;20504;-69
2022/01/12 12:55:59;;;;;;;49.03;19.85;;;;;;;-4.55;nan;102225.41;5052679;28;20029;-70
2022/01/12 12:58:26;;;;;;;47.00;19.30;;;;;;;-4.54;nan;102220.19;5052908;28;20029;-70
2022/01/12 13:00:52;;;;;;;54.17;20.67;;;;;;;-4.59;nan;102218.78;5034681;28;20033;-71